This is the latest recevied weather packets stored in our database for station/object KJ4RDP-13. If no packets are shown the sender has not sent any weather packets the latest 10 day(s).
| Time | Temp. | Humidity | Pressure | Rain* | Wind** | Luminosity | Snow |
|---|---|---|---|---|---|---|---|
| 1777731549 | 10.56° C | 68% | 1013.1 hPa | 0 mm | - | 145 W/m² | - |
| 1777731247 | 10° C | 67% | 1013.1 hPa | 0 mm | - | 186 W/m² | - |
| 1777730944 | 10° C | 68% | 1013.1 hPa | 0 mm | - | 177 W/m² | - |
| 1777730642 | 10° C | 68% | 1013.1 hPa | 0 mm | - | 147 W/m² | - |
| 1777730338 | 10° C | 70% | 1013.1 hPa | 0 mm | - | 124 W/m² | - |
| 1777730034 | 10° C | 71% | 1013.1 hPa | 0 mm | - | 118 W/m² | - |
| 1777729730 | 10° C | 70% | 1012.8 hPa | 0 mm | - | 104 W/m² | - |
| 1777729428 | 10° C | 73% | 1013.5 hPa | 0 mm | - | 61 W/m² | - |
| 1777729124 | 10° C | 72% | 1013.5 hPa | 0 mm | - | 44 W/m² | - |
| 1777728820 | 10° C | 73% | 1013.1 hPa | 0 mm | - | 64 W/m² | - |
| 1777728518 | 10° C | 72% | 1012.3 hPa | 0 mm | - | 139 W/m² | - |
| 1777728215 | 10° C | 72% | 1012.3 hPa | 0 mm | - | 125 W/m² | - |
| 1777727912 | 10° C | 73% | 1012.8 hPa | 0 mm | - | 96 W/m² | - |
| 1777727609 | 10° C | 73% | 1012.8 hPa | 0 mm | - | 103 W/m² | - |
| 1777727306 | 10° C | 73% | 1013.1 hPa | 0 mm | - | 81 W/m² | - |
| 1777727004 | 10° C | 74% | 1013.1 hPa | 0 mm | - | 109 W/m² | - |
| 1777726700 | 10.56° C | 75% | 1012.8 hPa | 0 mm | - | 112 W/m² | - |
| 1777726398 | 10.56° C | 76% | 1013.1 hPa | 0 mm | - | 142 W/m² | - |
| 1777726094 | 10° C | 77% | 1012.8 hPa | 0 mm | - | 139 W/m² | - |
| 1777725791 | 10.56° C | 76% | 1013.1 hPa | 0 mm | - | 108 W/m² | - |
| 1777725489 | 10° C | 79% | 1012.8 hPa | 0 mm | - | 143 W/m² | - |
| 1777725186 | 10° C | 79% | 1012.8 hPa | 0 mm | - | 130 W/m² | - |
| 1777724883 | 10° C | 78% | 1012.8 hPa | 0 mm | - | 72 W/m² | - |
| 1777724579 | 10° C | 79% | 1012.8 hPa | 0 mm | - | 81 W/m² | - |
| 1777724277 | 10° C | 82% | 1012.8 hPa | 0 mm | - | 67 W/m² | - |
* Rain latest hour (hover to see other rain measurements)
** Current wind speed in m/s (hover to see current wind gust speed)